createdAt,value
2022-10-14T00:01:26.973Z,30.97
2022-10-14T00:04:31.272Z,30.77
2022-10-14T00:07:34.622Z,31.77
2022-10-14T00:10:43.671Z,31.63
2022-10-14T00:13:48.968Z,30.70
2022-10-14T00:16:56.070Z,30.03
2022-10-14T00:19:59.285Z,32.27
2022-10-14T00:23:02.545Z,31.17
2022-10-14T00:26:06.259Z,33.53
2022-10-14T00:29:16.065Z,30.60
2022-10-14T00:32:20.502Z,30.30
2022-10-14T00:35:23.767Z,29.87
2022-10-14T00:38:30.046Z,30.20
2022-10-14T00:41:35.855Z,30.07
2022-10-14T00:45:08.733Z,32.63
2022-10-14T00:48:14.178Z,32.43
2022-10-14T00:51:17.438Z,33.00
2022-10-14T00:54:41.691Z,32.30
2022-10-14T00:57:45.802Z,30.10
2022-10-14T01:00:49.314Z,31.30
2022-10-14T01:03:54.706Z,31.13
2022-10-14T01:07:07.702Z,30.27
2022-10-14T01:10:16.948Z,30.37
2022-10-14T01:13:27.661Z,31.50
2022-10-14T01:16:43.208Z,30.13
2022-10-14T01:20:32.464Z,30.63
2022-10-14T01:24:19.061Z,30.30
2022-10-14T01:27:43.958Z,30.33
2022-10-14T01:30:51.890Z,30.73
2022-10-14T01:33:59.248Z,29.13
2022-10-14T01:37:10.024Z,32.17
2022-10-14T01:41:24.815Z,33.23
2022-10-14T01:44:31.080Z,30.83
2022-10-14T01:47:36.655Z,33.00
2022-10-14T01:50:40.990Z,28.60
2022-10-14T01:53:52.014Z,28.63
2022-10-14T01:56:57.790Z,31.00
2022-10-14T02:00:01.972Z,31.30
2022-10-14T02:03:18.168Z,33.50
2022-10-14T02:06:27.143Z,31.13
2022-10-14T02:09:40.219Z,31.50
2022-10-14T02:12:54.451Z,31.20
2022-10-14T02:16:09.596Z,32.30
2022-10-14T02:19:27.072Z,29.73
2022-10-14T02:22:53.504Z,34.23
2022-10-14T02:26:16.754Z,31.60
2022-10-14T02:29:29.652Z,32.80
2022-10-14T02:32:34.250Z,31.30
2022-10-14T02:35:42.779Z,31.10
2022-10-14T02:38:48.716Z,29.00
2022-10-14T02:42:02.064Z,29.17
2022-10-14T02:45:08.782Z,27.93
2022-10-14T02:48:18.790Z,30.43
2022-10-14T02:51:23.448Z,29.97
2022-10-14T02:54:43.483Z,28.33
2022-10-14T02:57:50.227Z,28.60
2022-10-14T03:00:58.246Z,29.10
2022-10-14T03:04:02.639Z,30.27
2022-10-14T03:07:10.489Z,28.97
2022-10-14T03:10:19.788Z,30.07
2022-10-14T03:13:34.568Z,32.03
2022-10-14T03:16:37.998Z,31.90
2022-10-14T03:19:49.052Z,31.53
2022-10-14T03:22:53.758Z,32.37
2022-10-14T03:26:01.898Z,30.87
2022-10-14T03:29:11.978Z,32.37
2022-10-14T03:32:31.178Z,29.87
2022-10-14T03:36:05.287Z,31.43
2022-10-14T03:39:38.740Z,29.40
2022-10-14T03:42:44.393Z,31.97
2022-10-14T03:45:47.859Z,29.43
2022-10-14T03:48:57.092Z,29.30
2022-10-14T03:52:00.983Z,30.93
2022-10-14T03:55:10.912Z,29.87
2022-10-14T03:58:16.011Z,28.43
2022-10-14T04:01:25.665Z,28.57
2022-10-14T04:05:00.600Z,27.50
2022-10-14T04:08:05.540Z,30.40
2022-10-14T04:11:10.161Z,28.00
2022-10-14T04:14:15.835Z,32.07
2022-10-14T04:17:24.400Z,27.93
2022-10-14T04:20:27.807Z,27.40
2022-10-14T04:23:31.572Z,29.00
2022-10-14T04:26:41.767Z,30.70
2022-10-14T04:29:52.876Z,28.93
2022-10-14T04:33:03.117Z,28.73
2022-10-14T04:36:09.188Z,28.60
2022-10-14T04:39:15.821Z,28.33
2022-10-14T04:42:20.661Z,27.63
2022-10-14T04:45:27.769Z,27.70
2022-10-14T04:48:38.252Z,30.97
2022-10-14T04:51:46.801Z,27.10
2022-10-14T04:54:58.678Z,28.00
2022-10-14T04:58:12.628Z,30.57
2022-10-14T05:01:18.852Z,27.20
2022-10-14T05:04:22.420Z,26.80
2022-10-14T05:07:27.587Z,26.73
2022-10-14T05:10:38.633Z,29.07
2022-10-14T05:13:50.195Z,28.50
2022-10-14T05:16:53.799Z,26.37
2022-10-14T05:20:03.656Z,28.40
2022-10-14T05:23:07.736Z,27.00
2022-10-14T05:26:11.131Z,26.37
2022-10-14T05:29:18.056Z,26.23
2022-10-14T05:32:21.438Z,27.27
2022-10-14T05:35:53.607Z,27.43
2022-10-14T05:38:51.457Z,25.77
2022-10-14T05:41:57.812Z,26.10
2022-10-14T05:45:05.259Z,26.43
2022-10-14T05:48:11.369Z,27.23
2022-10-14T05:51:15.507Z,27.17
2022-10-14T05:54:18.945Z,26.67
2022-10-14T05:57:24.194Z,26.80
2022-10-14T06:00:28.754Z,28.37
2022-10-14T06:03:38.821Z,26.50
2022-10-14T06:06:42.318Z,26.40
2022-10-14T06:09:45.468Z,28.43
2022-10-14T06:12:48.609Z,27.37
2022-10-14T06:15:53.179Z,28.53
2022-10-14T06:18:56.891Z,28.13
2022-10-14T06:22:00.945Z,28.27
2022-10-14T06:25:04.697Z,26.70
2022-10-14T06:28:08.226Z,26.87
2022-10-14T06:31:12.545Z,27.73
2022-10-14T06:34:15.511Z,27.60
2022-10-14T06:37:19.706Z,31.43
2022-10-14T06:40:22.936Z,29.83
2022-10-14T06:43:26.020Z,29.67
2022-10-14T06:46:33.330Z,29.47
2022-10-14T06:49:36.331Z,27.77
2022-10-14T06:52:39.258Z,28.40
2022-10-14T06:55:42.494Z,27.80
2022-10-14T06:58:45.424Z,28.70
2022-10-14T07:01:50.081Z,29.63
2022-10-14T07:04:53.097Z,28.83
2022-10-14T07:07:58.059Z,29.23
2022-10-14T07:11:01.334Z,27.97
2022-10-14T07:14:04.579Z,30.67
2022-10-14T07:17:09.892Z,29.27
2022-10-14T07:20:13.815Z,27.47
2022-10-14T07:23:17.972Z,30.07
2022-10-14T07:26:21.086Z,29.60
2022-10-14T07:29:24.115Z,25.73
2022-10-14T07:32:29.099Z,28.87
2022-10-14T07:35:32.309Z,28.93
2022-10-14T07:38:35.658Z,27.77
2022-10-14T07:41:40.222Z,26.13
2022-10-14T07:44:43.281Z,28.03
2022-10-14T07:47:50.008Z,27.10
2022-10-14T07:50:53.027Z,26.47
2022-10-14T07:53:58.614Z,27.63
2022-10-14T07:57:01.571Z,27.23
2022-10-14T08:00:06.075Z,26.23
2022-10-14T08:03:16.988Z,27.13
2022-10-14T08:06:20.196Z,27.57
2022-10-14T08:09:23.383Z,29.83
2022-10-14T08:12:26.470Z,30.93
2022-10-14T08:15:30.340Z,28.77
2022-10-14T08:18:34.643Z,28.73
2022-10-14T08:21:37.998Z,35.50
2022-10-14T08:24:41.095Z,28.53
2022-10-14T08:27:44.079Z,27.87
2022-10-14T08:30:48.162Z,31.57
2022-10-14T08:33:52.740Z,28.20
2022-10-14T08:36:55.716Z,26.53
2022-10-14T08:39:58.776Z,27.60
2022-10-14T08:43:09.026Z,27.00
2022-10-14T08:46:25.282Z,31.70
2022-10-14T08:49:37.288Z,29.47
2022-10-14T08:52:44.509Z,27.50
2022-10-14T08:55:49.737Z,29.40
2022-10-14T08:58:55.160Z,25.07
2022-10-14T09:02:04.637Z,24.40
2022-10-14T09:05:16.463Z,25.07
2022-10-14T09:08:27.955Z,24.77
2022-10-14T09:11:38.513Z,25.93
2022-10-14T09:14:47.991Z,27.77
2022-10-14T09:18:02.042Z,24.33
2022-10-14T09:21:40.879Z,21.60
2022-10-14T09:24:49.299Z,22.00
2022-10-14T09:27:52.472Z,22.23
2022-10-14T09:30:55.584Z,23.17
2022-10-14T09:33:58.675Z,22.47
2022-10-14T09:37:22.829Z,20.67
2022-10-14T09:40:31.749Z,22.97
2022-10-14T09:43:34.894Z,22.53
2022-10-14T09:46:39.502Z,20.30
2022-10-14T09:49:45.741Z,20.15
2022-10-14T09:52:55.992Z,20.23
2022-10-14T09:56:01.642Z,20.38
2022-10-14T09:59:06.703Z,20.30
2022-10-14T10:02:26.487Z,20.17
2022-10-14T10:05:31.854Z,20.23
2022-10-14T10:08:39.870Z,20.23
2022-10-14T10:11:42.830Z,19.33
2022-10-14T10:14:58.471Z,20.08
2022-10-14T10:18:01.486Z,18.10
2022-10-14T10:21:08.010Z,17.45
2022-10-14T10:24:25.961Z,18.58
2022-10-14T10:27:36.336Z,17.63
2022-10-14T10:30:44.474Z,18.25
2022-10-14T10:33:54.987Z,18.05
2022-10-14T10:37:05.273Z,18.77
2022-10-14T10:40:55.513Z,18.33
2022-10-14T10:44:28.644Z,18.95
2022-10-14T10:47:45.514Z,16.55
2022-10-14T10:50:57.545Z,18.30
2022-10-14T10:54:09.461Z,17.38
2022-10-14T10:57:34.542Z,16.65
2022-10-14T11:00:46.903Z,17.05
2022-10-14T11:04:04.865Z,16.98
2022-10-14T11:07:39.489Z,16.02
2022-10-14T11:11:12.590Z,16.30
2022-10-14T11:14:35.372Z,16.27
2022-10-14T11:17:47.301Z,16.45
2022-10-14T11:21:09.050Z,19.25
2022-10-14T11:24:23.395Z,16.65
2022-10-14T11:27:37.639Z,15.35
2022-10-14T11:30:50.178Z,16.48
2022-10-14T11:34:07.532Z,15.38
2022-10-14T11:37:24.027Z,16.30
2022-10-14T11:40:33.015Z,14.85
2022-10-14T11:43:49.619Z,14.80
2022-10-14T11:46:58.720Z,14.70
2022-10-14T11:50:14.267Z,15.00
2022-10-14T11:53:23.357Z,14.48
2022-10-14T11:56:50.980Z,14.50
2022-10-14T12:00:02.801Z,14.32
2022-10-14T12:03:27.358Z,14.10
2022-10-14T12:06:35.464Z,14.15
2022-10-14T12:09:43.546Z,13.82
2022-10-14T12:12:46.774Z,14.60
2022-10-14T12:15:53.685Z,15.05
2022-10-14T12:18:58.694Z,13.88
2022-10-14T12:22:11.013Z,13.55
2022-10-14T12:25:17.771Z,12.15
2022-10-14T12:28:22.223Z,12.77
2022-10-14T12:31:40.098Z,12.82
2022-10-14T12:34:46.667Z,12.18
2022-10-14T12:37:52.212Z,13.68
2022-10-14T12:40:56.245Z,12.35
2022-10-14T12:44:02.326Z,10.32
2022-10-14T12:47:06.672Z,10.13
2022-10-14T12:50:30.931Z,10.25
2022-10-14T12:53:35.681Z,9.32
2022-10-14T12:56:43.425Z,8.25
2022-10-14T12:59:51.271Z,12.68
2022-10-14T13:02:58.022Z,9.73
2022-10-14T13:06:40.646Z,9.48
2022-10-14T13:09:46.026Z,8.98
2022-10-14T13:12:49.300Z,8.30
2022-10-14T13:15:53.257Z,8.27
2022-10-14T13:18:58.084Z,8.18
2022-10-14T13:22:03.582Z,8.55
2022-10-14T13:25:19.073Z,8.77
2022-10-14T13:28:28.563Z,9.73
2022-10-14T13:31:41.198Z,7.97
2022-10-14T13:34:52.774Z,9.30
2022-10-14T13:38:01.343Z,9.57
2022-10-14T13:41:06.086Z,8.98
2022-10-14T13:44:13.198Z,6.93
2022-10-14T13:47:21.984Z,7.70
2022-10-14T13:50:31.918Z,8.95
2022-10-14T13:53:36.245Z,7.88
2022-10-14T13:56:44.029Z,7.43
2022-10-14T14:03:23.563Z,7.85
2022-10-14T14:06:35.816Z,7.43
2022-10-14T14:09:53.674Z,7.85
2022-10-14T14:12:57.102Z,8.02
2022-10-14T14:16:00.200Z,6.68
2022-10-14T14:19:09.667Z,8.98
2022-10-14T14:22:19.881Z,7.53
2022-10-14T14:25:38.119Z,7.43
2022-10-14T14:28:49.051Z,7.90
2022-10-14T14:32:08.585Z,7.35
2022-10-14T14:35:16.110Z,7.43
2022-10-14T14:38:26.324Z,7.65
2022-10-14T14:41:34.514Z,7.50
2022-10-14T14:44:37.635Z,7.95
2022-10-14T14:47:42.413Z,6.80
2022-10-14T14:50:46.632Z,7.53
2022-10-14T14:53:53.359Z,7.80
2022-10-14T14:57:05.157Z,7.72
2022-10-14T15:00:20.274Z,6.90
2022-10-14T15:03:27.578Z,6.72
2022-10-14T15:06:33.805Z,6.78
2022-10-14T15:09:42.494Z,7.10
2022-10-14T15:12:54.716Z,6.82
2022-10-14T15:16:01.663Z,6.50
2022-10-14T15:19:24.037Z,8.05
2022-10-14T15:22:36.654Z,6.47
2022-10-14T15:25:39.829Z,6.78
2022-10-14T15:28:44.163Z,7.53
2022-10-14T15:32:09.387Z,6.95
2022-10-14T15:35:14.871Z,6.78
2022-10-14T15:38:19.069Z,8.48
2022-10-14T15:41:22.749Z,8.50
2022-10-14T15:44:27.001Z,6.90
2022-10-14T15:47:30.040Z,7.57
2022-10-14T15:50:33.645Z,7.35
2022-10-14T15:53:36.585Z,6.68
2022-10-14T15:56:40.419Z,7.75
2022-10-14T15:59:44.694Z,7.80
2022-10-14T16:02:50.014Z,8.55
2022-10-14T16:05:54.110Z,6.88
2022-10-14T16:08:57.123Z,6.85
2022-10-14T16:12:00.038Z,7.57
2022-10-14T16:15:21.806Z,7.38
2022-10-14T16:18:25.766Z,8.65
2022-10-14T16:21:34.695Z,8.93
2022-10-14T16:24:38.335Z,8.57
2022-10-14T16:27:42.979Z,8.75
2022-10-14T16:30:50.123Z,8.27
2022-10-14T16:33:54.604Z,8.75
2022-10-14T16:36:58.737Z,8.73
2022-10-14T16:40:01.651Z,10.97
2022-10-14T16:43:07.058Z,9.55
2022-10-14T16:46:15.387Z,9.77
2022-10-14T16:49:19.515Z,9.50
2022-10-14T16:52:22.703Z,10.27
2022-10-14T16:55:25.915Z,12.80
2022-10-14T16:58:29.042Z,10.47
2022-10-14T17:01:33.698Z,12.53
2022-10-14T17:04:39.193Z,11.60
2022-10-14T17:07:43.406Z,10.50
2022-10-14T17:10:46.408Z,10.97
2022-10-14T17:13:52.888Z,10.13
2022-10-14T17:16:57.118Z,12.20
2022-10-14T17:20:00.072Z,10.20
2022-10-14T17:23:09.402Z,12.17
2022-10-14T17:26:18.747Z,11.90
2022-10-14T17:29:21.881Z,12.17
2022-10-14T17:32:28.058Z,13.03
2022-10-14T17:35:31.057Z,12.17
2022-10-14T17:38:36.744Z,11.43
2022-10-14T17:41:40.008Z,12.90
2022-10-14T17:44:43.935Z,12.30
2022-10-14T17:47:48.410Z,11.90
2022-10-14T17:50:51.448Z,12.47
2022-10-14T17:53:56.979Z,14.63
2022-10-14T17:56:59.914Z,13.83
2022-10-14T18:00:03.212Z,14.40
2022-10-14T18:03:16.162Z,14.93
2022-10-14T18:06:24.265Z,13.67
2022-10-14T18:09:30.001Z,16.40
2022-10-14T18:12:33.819Z,15.00
2022-10-14T18:15:37.178Z,19.20
2022-10-14T18:18:42.840Z,18.37
2022-10-14T18:21:46.642Z,17.57
2022-10-14T18:24:52.000Z,19.13
2022-10-14T18:27:55.093Z,19.07
2022-10-14T18:30:58.103Z,18.87
2022-10-14T18:34:02.976Z,17.93
2022-10-14T18:37:05.958Z,18.53
2022-10-14T18:40:10.608Z,17.43
2022-10-14T18:43:13.730Z,17.80
2022-10-14T18:46:20.027Z,16.47
2022-10-14T18:49:24.562Z,15.70
2022-10-14T18:52:27.522Z,15.03
2022-10-14T18:55:30.452Z,16.03
2022-10-14T18:58:33.513Z,15.30
2022-10-14T19:01:37.809Z,16.63
2022-10-14T19:04:48.613Z,16.23
2022-10-14T19:07:51.674Z,17.80
2022-10-14T19:11:02.482Z,18.17
2022-10-14T19:14:06.383Z,16.50
2022-10-14T19:17:09.521Z,15.50
2022-10-14T19:20:13.837Z,17.57
2022-10-14T19:23:16.769Z,15.13
2022-10-14T19:26:22.003Z,14.53
2022-10-14T19:29:25.102Z,17.13
2022-10-14T19:32:28.496Z,16.67
2022-10-14T19:35:33.027Z,15.97
2022-10-14T19:38:37.560Z,15.70
2022-10-14T19:41:43.275Z,14.20
2022-10-14T19:44:46.515Z,14.63
2022-10-14T19:47:49.482Z,14.60
2022-10-14T19:50:53.935Z,13.60
2022-10-14T19:53:57.870Z,14.33
2022-10-14T19:57:00.836Z,12.23
2022-10-14T20:00:04.404Z,13.43
2022-10-14T20:03:07.569Z,12.13
2022-10-14T20:06:13.716Z,13.03
2022-10-14T20:09:16.724Z,13.30
2022-10-14T20:12:19.901Z,12.13
2022-10-14T20:15:23.071Z,13.40
2022-10-14T20:18:26.631Z,12.10
2022-10-14T20:21:31.656Z,14.10
2022-10-14T20:24:38.642Z,12.73
2022-10-14T20:27:41.639Z,12.77
2022-10-14T20:30:44.665Z,15.47
2022-10-14T20:33:47.794Z,14.13
2022-10-14T20:36:53.578Z,13.27
2022-10-14T20:39:56.578Z,14.80
2022-10-14T20:42:59.536Z,16.13
2022-10-14T20:46:02.646Z,17.03
2022-10-14T20:49:05.956Z,16.53
2022-10-14T20:52:10.550Z,17.47
2022-10-14T20:55:13.609Z,18.37
2022-10-14T20:58:18.322Z,18.50
2022-10-14T21:01:21.255Z,15.30
2022-10-14T21:04:24.600Z,16.77
2022-10-14T21:07:28.911Z,16.93
2022-10-14T21:10:32.313Z,18.13
2022-10-14T21:13:35.778Z,17.10
2022-10-14T21:16:39.797Z,18.33
2022-10-14T21:19:42.741Z,17.63
2022-10-14T21:22:46.962Z,18.10
2022-10-14T21:25:56.455Z,17.50
2022-10-14T21:29:02.064Z,19.73
2022-10-14T21:32:06.086Z,19.13
2022-10-14T21:35:09.476Z,20.73
2022-10-14T21:38:13.760Z,20.47
2022-10-14T21:41:16.768Z,21.17
2022-10-14T21:44:21.772Z,19.97
2022-10-14T21:47:24.703Z,20.17
2022-10-14T21:50:27.622Z,21.33
2022-10-14T21:53:32.856Z,21.73
2022-10-14T21:56:35.898Z,21.20
2022-10-14T21:59:39.359Z,22.37
2022-10-14T22:02:42.314Z,20.63
2022-10-14T22:05:45.536Z,21.20
2022-10-14T22:08:52.292Z,23.33
2022-10-14T22:11:55.442Z,22.73
2022-10-14T22:14:58.379Z,23.50
2022-10-14T22:18:01.282Z,22.23
2022-10-14T22:21:08.349Z,23.07
2022-10-14T22:24:13.083Z,22.17
2022-10-14T22:27:16.339Z,21.40
2022-10-14T22:30:19.961Z,22.23
2022-10-14T22:33:22.949Z,21.67
2022-10-14T22:36:28.767Z,23.60
2022-10-14T22:39:33.572Z,23.07
2022-10-14T22:42:37.991Z,22.93
2022-10-14T22:45:43.546Z,23.60
2022-10-14T22:48:47.076Z,23.33
2022-10-14T22:51:53.210Z,25.57
2022-10-14T22:55:00.424Z,23.13
2022-10-14T22:58:03.359Z,24.60
2022-10-14T23:01:07.810Z,23.40
2022-10-14T23:04:12.104Z,22.67
2022-10-14T23:07:15.070Z,23.60
2022-10-14T23:10:19.340Z,24.33
2022-10-14T23:13:22.423Z,22.73
2022-10-14T23:16:27.776Z,23.07
2022-10-14T23:19:31.011Z,22.67
2022-10-14T23:22:34.556Z,23.30
2022-10-14T23:25:42.748Z,24.03
2022-10-14T23:28:49.555Z,23.63
2022-10-14T23:31:52.594Z,23.87
2022-10-14T23:34:55.735Z,22.87
2022-10-14T23:37:58.849Z,25.03
2022-10-14T23:41:04.723Z,22.50
2022-10-14T23:44:07.775Z,23.53
2022-10-14T23:47:11.063Z,22.77
2022-10-14T23:50:14.015Z,23.80
2022-10-14T23:53:17.318Z,23.63
2022-10-14T23:56:21.677Z,23.67
2022-10-14T23:59:24.601Z,22.40
